Time;durP1;ratioP1;P1;durP2;ratioP2;P2;SDS_P1;SDS_P2;PMS_P1;PMS_P2;Temp;Humidity;BMP_temperature;BMP_pressure;BME280_temperature;BME280_humidity;BME280_pressure;Samples;Min_cycle;Max_cycle;Signal;HPM_P1;HPM_P2
2022/12/01 01:15:37;;;;;;;81.82;41.63;;;5.80;99.90;;;;;;4826122;29;20061;-81
2022/12/01 01:18:04;;;;;;;74.35;39.85;;;5.80;99.90;;;;;;4828847;29;20042;-81
2022/12/01 01:20:30;;;;;;;80.15;42.40;;;5.80;99.90;;;;;;4843394;29;20379;-81
2022/12/01 01:22:56;;;;;;;72.32;40.60;;;5.90;99.90;;;;;;4822253;29;20074;-81
2022/12/01 01:25:21;;;;;;;72.25;39.28;;;5.90;99.90;;;;;;4827550;29;20097;-81
2022/12/01 01:27:47;;;;;;;75.20;40.85;;;5.90;99.90;;;;;;4825297;29;20057;-81
2022/12/01 01:30:13;;;;;;;74.65;41.08;;;5.80;99.90;;;;;;4828008;29;20042;-81
2022/12/01 01:32:39;;;;;;;74.50;40.03;;;5.90;99.90;;;;;;4804564;29;20574;-81
2022/12/01 01:35:05;;;;;;;77.75;41.40;;;5.90;99.90;;;;;;4806461;29;20042;-81
2022/12/01 01:37:30;;;;;;;80.88;42.10;;;5.80;99.90;;;;;;4825940;29;20046;-81
2022/12/01 01:39:56;;;;;;;79.22;42.97;;;5.80;99.90;;;;;;4822769;29;20098;-81
2022/12/01 01:42:21;;;;;;;73.28;38.30;;;5.80;99.90;;;;;;4828424;29;20045;-81
2022/12/01 01:44:56;;;;;;;69.35;38.97;;;5.80;99.90;;;;;;4826689;29;20465;-81
2022/12/01 01:47:34;;;;;;;74.28;39.88;;;5.80;99.90;;;;;;4826116;29;20095;-81
2022/12/01 01:50:07;;;;;;;73.25;39.90;;;5.90;99.90;;;;;;4826716;29;20046;-81
2022/12/01 01:52:38;;;;;;;67.68;37.95;;;5.80;99.90;;;;;;4825872;29;20061;-81
2022/12/01 01:55:04;;;;;;;64.10;39.13;;;5.90;99.90;;;;;;4826735;29;20105;-81
2022/12/01 01:57:32;;;;;;;65.88;39.47;;;5.90;99.90;;;;;;4841333;29;20054;-81
2022/12/01 02:00:08;;;;;;;72.60;39.72;;;5.90;99.90;;;;;;4827645;29;20092;-81
2022/12/01 02:02:39;;;;;;;69.10;38.95;;;5.90;99.90;;;;;;4812272;29;20113;-81
2022/12/01 02:05:09;;;;;;;66.03;39.80;;;5.90;99.90;;;;;;4827954;29;20042;-81
2022/12/01 02:07:38;;;;;;;69.90;38.63;;;5.80;99.90;;;;;;4828760;29;20460;-81
2022/12/01 02:10:06;;;;;;;66.97;38.17;;;5.80;99.90;;;;;;4829301;29;20116;-81
2022/12/01 02:12:53;;;;;;;70.80;40.47;;;5.80;99.90;;;;;;4806306;29;20061;-81
2022/12/01 02:15:43;;;;;;;70.68;39.15;;;5.90;99.90;;;;;;4830592;29;20659;-81
2022/12/01 02:18:18;;;;;;;70.72;40.13;;;5.80;99.90;;;;;;4827841;29;20165;-82
2022/12/01 02:21:24;;;;;;;70.78;40.58;;;5.80;99.90;;;;;;4827755;29;20684;-81
2022/12/01 02:24:37;;;;;;;72.80;41.63;;;5.90;99.90;;;;;;4829752;29;20091;-81
2022/12/01 02:27:22;;;;;;;76.32;43.25;;;5.90;99.90;;;;;;4760774;30;20047;-81
2022/12/01 02:30:13;;;;;;;78.47;42.33;;;5.90;99.90;;;;;;4828400;29;20045;-81
2022/12/01 02:32:59;;;;;;;81.47;41.78;;;5.90;99.90;;;;;;4828493;29;20049;-81
2022/12/01 02:35:44;;;;;;;77.18;43.40;;;5.90;99.90;;;;;;4843427;29;20046;-81
2022/12/01 02:38:48;;;;;;;74.35;42.35;;;5.90;99.90;;;;;;4829873;29;20118;-81
2022/12/01 02:41:22;;;;;;;75.63;42.30;;;5.90;99.90;;;;;;4828380;29;20129;-80
2022/12/01 02:44:15;;;;;;;74.97;42.15;;;5.90;99.90;;;;;;4831518;29;20042;-81
2022/12/01 02:46:56;;;;;;;73.10;43.28;;;5.80;99.90;;;;;;4828912;29;20046;-81
2022/12/01 02:49:33;;;;;;;75.40;42.63;;;5.80;99.90;;;;;;4813354;29;20052;-81
2022/12/01 02:52:01;;;;;;;74.20;40.88;;;5.80;99.90;;;;;;4830406;29;20092;-81
2022/12/01 02:54:29;;;;;;;76.57;42.70;;;5.90;99.90;;;;;;4829535;29;20462;-81
2022/12/01 02:56:55;;;;;;;80.07;43.67;;;5.80;99.90;;;;;;4829101;29;20042;-81
2022/12/01 02:59:21;;;;;;;75.05;43.13;;;5.80;99.90;;;;;;4843810;29;20050;-81
2022/12/01 03:02:08;;;;;;;80.75;44.47;;;5.80;99.90;;;;;;4829568;29;20548;-81
2022/12/01 03:05:02;;;;;;;76.47;45.47;;;5.80;99.90;;;;;;4831009;29;20493;-81
2022/12/01 03:07:42;;;;;;;80.00;44.97;;;5.80;99.90;;;;;;4828056;29;20784;-81
2022/12/01 03:10:17;;;;;;;74.25;42.63;;;5.70;99.90;;;;;;4845105;29;20089;-80
2022/12/01 03:12:58;;;;;;;78.00;45.03;;;5.70;99.90;;;;;;4830350;29;20051;-81
2022/12/01 03:15:26;;;;;;;75.35;43.92;;;5.70;99.90;;;;;;4829302;29;20140;-81
2022/12/01 03:18:07;;;;;;;80.40;44.40;;;5.70;99.90;;;;;;4842519;29;20164;-81
2022/12/01 03:20:32;;;;;;;76.70;43.92;;;5.70;99.90;;;;;;4828637;29;20049;-81
2022/12/01 03:23:08;;;;;;;79.65;45.10;;;5.70;99.90;;;;;;4830223;29;20498;-81
2022/12/01 03:25:36;;;;;;;82.50;46.95;;;5.70;99.90;;;;;;4807503;29;20042;-81
2022/12/01 03:28:04;;;;;;;78.22;45.95;;;5.60;99.90;;;;;;4829406;29;20394;-81
2022/12/01 03:30:33;;;;;;;79.22;44.25;;;5.70;99.90;;;;;;4844412;29;20041;-81
2022/12/01 03:33:04;;;;;;;79.78;45.58;;;5.60;99.90;;;;;;4845413;29;20064;-81
2022/12/01 03:35:34;;;;;;;76.30;42.50;;;5.70;99.90;;;;;;4811911;29;20042;-81
2022/12/01 03:38:36;;;;;;;76.50;44.35;;;5.70;99.90;;;;;;4828223;29;20045;-81
2022/12/01 03:41:11;;;;;;;77.10;43.90;;;5.70;99.90;;;;;;4759287;29;20088;-81
2022/12/01 03:43:41;;;;;;;76.25;43.85;;;5.70;99.90;;;;;;4803507;29;20534;-81
2022/12/01 03:46:18;;;;;;;81.65;44.53;;;5.70;99.90;;;;;;4824680;29;20046;-81
2022/12/01 03:48:45;;;;;;;83.40;45.03;;;5.70;99.90;;;;;;4827031;29;20049;-81
2022/12/01 03:51:22;;;;;;;77.07;44.58;;;5.70;99.90;;;;;;4826962;29;20060;-81
2022/12/01 03:53:56;;;;;;;78.45;44.67;;;5.70;99.90;;;;;;4829476;29;20045;-81
2022/12/01 03:56:26;;;;;;;83.18;46.10;;;5.70;99.90;;;;;;4827997;29;20157;-81
2022/12/01 03:58:55;;;;;;;84.00;46.63;;;5.70;99.90;;;;;;4806353;29;20049;-81
2022/12/01 04:01:21;;;;;;;81.85;45.05;;;5.70;99.90;;;;;;4829571;29;20413;-81
2022/12/01 04:03:47;;;;;;;83.82;45.38;;;5.70;99.90;;;;;;4806446;29;20133;-81
2022/12/01 04:06:13;;;;;;;85.22;46.97;;;5.60;99.90;;;;;;4826640;29;20038;-81
2022/12/01 04:08:39;;;;;;;77.43;45.15;;;5.60;99.90;;;;;;4828140;29;20049;-81
2022/12/01 04:12:28;;;;;;;82.03;46.13;;;5.60;99.90;;;;;;4827518;29;20067;-81
2022/12/01 04:13:50;;;;;;;80.93;45.28;;;5.60;99.90;;;;;;4829567;29;20121;-81
2022/12/01 04:16:15;;;;;;;79.13;46.50;;;5.60;99.90;;;;;;4826052;29;20189;-81
2022/12/01 04:18:41;;;;;;;82.78;46.20;;;5.60;99.90;;;;;;4827387;29;20063;-81
2022/12/01 04:21:07;;;;;;;88.38;45.90;;;5.60;99.90;;;;;;4842673;29;20057;-82
2022/12/01 04:26:16;;;;;;;78.97;46.35;;;5.60;99.90;;;;;;4827414;29;20088;-81
2022/12/01 04:28:42;;;;;;;85.47;45.78;;;5.60;99.90;;;;;;4826366;29;20042;-81
2022/12/01 04:31:07;;;;;;;86.90;47.55;;;5.60;99.90;;;;;;4813349;29;21798;-81
2022/12/01 04:33:33;;;;;;;84.20;44.28;;;5.60;99.90;;;;;;4828651;29;20521;-81
2022/12/01 04:35:59;;;;;;;84.70;46.40;;;5.50;99.90;;;;;;4826476;29;20501;-82
2022/12/01 04:38:25;;;;;;;88.63;47.38;;;5.60;99.90;;;;;;4828108;29;20056;-81
2022/12/01 04:40:51;;;;;;;83.20;45.97;;;5.60;99.90;;;;;;4827824;29;20101;-81
2022/12/01 04:43:16;;;;;;;80.80;45.85;;;5.60;99.90;;;;;;4840818;29;20106;-81
2022/12/01 04:45:42;;;;;;;89.63;46.45;;;5.60;99.90;;;;;;4826965;29;20044;-81
2022/12/01 04:48:07;;;;;;;78.93;45.42;;;5.60;99.90;;;;;;4805142;29;20046;-82
2022/12/01 04:50:33;;;;;;;81.47;46.70;;;5.60;99.90;;;;;;4818907;29;20045;-82
2022/12/01 04:52:59;;;;;;;86.75;47.88;;;5.60;99.90;;;;;;4823854;29;20046;-81
2022/12/01 04:55:24;;;;;;;81.95;47.53;;;5.60;99.90;;;;;;4826945;29;20118;-81
2022/12/01 04:57:50;;;;;;;85.97;49.20;;;5.60;99.90;;;;;;4824237;29;20038;-82
2022/12/01 05:00:17;;;;;;;89.30;46.92;;;5.60;99.90;;;;;;4826501;29;20057;-82
2022/12/01 05:02:43;;;;;;;92.10;47.75;;;5.70;99.90;;;;;;4826364;29;20042;-81
2022/12/01 05:05:09;;;;;;;84.80;45.90;;;5.70;99.90;;;;;;4827150;29;20046;-82
2022/12/01 05:07:35;;;;;;;89.78;47.47;;;5.60;99.90;;;;;;4840543;29;20095;-81
2022/12/01 05:10:00;;;;;;;89.93;45.35;;;5.70;99.90;;;;;;4805996;29;20045;-82
2022/12/01 05:12:26;;;;;;;83.03;47.15;;;5.60;99.90;;;;;;4827952;29;20050;-81
2022/12/01 05:14:51;;;;;;;88.80;48.50;;;5.60;99.90;;;;;;4807699;29;20052;-82
2022/12/01 05:17:17;;;;;;;88.53;46.95;;;5.60;99.90;;;;;;4825073;29;20086;-82
2022/12/01 05:22:27;;;;;;;86.82;48.55;;;5.60;99.90;;;;;;4826354;29;20054;-82
2022/12/01 05:24:52;;;;;;;98.55;48.55;;;5.60;99.90;;;;;;4808336;29;20050;-81
2022/12/01 05:27:47;;;;;;;87.22;45.67;;;5.60;99.90;;;;;;4827307;29;20652;-81
2022/12/01 05:30:12;;;;;;;91.78;49.75;;;5.60;99.90;;;;;;4833093;29;20057;-82
2022/12/01 05:32:38;;;;;;;91.93;50.25;;;5.60;99.90;;;;;;4801087;29;20049;-78
2022/12/01 05:35:04;;;;;;;98.65;49.03;;;5.60;99.90;;;;;;4822986;29;20520;-81
2022/12/01 05:37:33;;;;;;;86.55;46.10;;;5.60;99.90;;;;;;4819504;29;20046;-80
2022/12/01 05:39:59;;;;;;;98.93;49.28;;;5.70;99.90;;;;;;4827262;29;20092;-81
2022/12/01 05:42:24;;;;;;;85.55;46.25;;;5.60;99.90;;;;;;4843210;29;20669;-80
2022/12/01 05:44:50;;;;;;;82.45;46.10;;;5.60;99.90;;;;;;4822659;29;20101;-79
2022/12/01 05:47:15;;;;;;;89.25;46.70;;;5.60;99.90;;;;;;4829126;29;20033;-81
2022/12/01 05:49:41;;;;;;;92.85;46.97;;;5.60;99.90;;;;;;4807553;29;20147;-81
2022/12/01 05:52:06;;;;;;;89.32;46.63;;;5.60;99.90;;;;;;4842695;29;20050;-81
2022/12/01 05:54:32;;;;;;;85.43;45.13;;;5.60;99.90;;;;;;4829370;29;20417;-81
2022/12/01 05:56:57;;;;;;;88.15;46.20;;;5.60;99.90;;;;;;4829056;29;20500;-81
2022/12/01 05:59:23;;;;;;;89.50;45.30;;;5.60;99.90;;;;;;4827390;29;20125;-81
2022/12/01 06:01:49;;;;;;;92.97;46.97;;;5.70;99.90;;;;;;4809589;29;20459;-81
2022/12/01 06:04:14;;;;;;;87.75;46.63;;;5.60;99.90;;;;;;4826611;29;20046;-80
2022/12/01 06:06:40;;;;;;;86.35;45.22;;;5.70;99.90;;;;;;4827353;29;20121;-80
2022/12/01 06:09:07;;;;;;;81.63;45.97;;;5.60;99.90;;;;;;4827165;29;20046;-83
2022/12/01 06:11:32;;;;;;;81.60;43.92;;;5.60;99.90;;;;;;4830898;29;20446;-81
2022/12/01 06:13:58;;;;;;;80.47;44.00;;;5.60;99.90;;;;;;4827981;29;20046;-82
2022/12/01 06:16:24;;;;;;;85.55;45.53;;;5.60;99.90;;;;;;4825746;29;20049;-80
2022/12/01 06:18:50;;;;;;;86.45;45.60;;;5.60;99.90;;;;;;4827561;29;20054;-82
2022/12/01 06:21:16;;;;;;;83.05;45.17;;;5.70;99.90;;;;;;4827587;29;20161;-81
2022/12/01 06:23:41;;;;;;;86.32;44.30;;;5.70;99.90;;;;;;4828510;29;20053;-82
2022/12/01 06:26:07;;;;;;;87.57;44.50;;;5.70;99.90;;;;;;4841083;29;20429;-80
2022/12/01 06:28:32;;;;;;;88.40;45.42;;;5.60;99.90;;;;;;4826421;29;20046;-79
2022/12/01 06:30:58;;;;;;;85.40;43.80;;;5.60;99.90;;;;;;4825718;29;20071;-82
2022/12/01 06:33:24;;;;;;;83.70;44.33;;;5.60;99.90;;;;;;4806721;29;20069;-82
2022/12/01 06:35:59;;;;;;;89.07;44.28;;;5.60;99.90;;;;;;4826290;29;20041;-82
2022/12/01 06:38:25;;;;;;;79.07;43.25;;;5.60;99.90;;;;;;4829079;29;20133;-83
2022/12/01 06:40:51;;;;;;;77.00;40.65;;;5.50;99.90;;;;;;4840186;29;20069;-81
2022/12/01 06:43:16;;;;;;;73.50;38.65;;;5.50;99.90;;;;;;4809633;29;20052;-82
2022/12/01 06:45:42;;;;;;;67.38;37.38;;;5.40;99.90;;;;;;4827829;29;20088;-82
2022/12/01 06:48:08;;;;;;;70.63;38.08;;;5.40;99.90;;;;;;4815951;29;20053;-82
2022/12/01 06:50:33;;;;;;;65.28;36.65;;;5.30;99.90;;;;;;4829621;29;20033;-82
2022/12/01 06:52:59;;;;;;;71.90;38.38;;;5.20;99.90;;;;;;4832564;29;20049;-82
2022/12/01 06:55:24;;;;;;;76.22;39.38;;;5.20;99.90;;;;;;4826167;29;20804;-84
2022/12/01 06:57:50;;;;;;;66.53;35.42;;;5.10;99.90;;;;;;4830109;29;20052;-82
2022/12/01 07:00:16;;;;;;;62.83;35.00;;;5.00;99.90;;;;;;4827220;29;20038;-83
2022/12/01 07:02:42;;;;;;;67.35;35.28;;;4.90;99.90;;;;;;4814443;29;20124;-82
2022/12/01 07:05:08;;;;;;;67.95;34.63;;;4.90;99.90;;;;;;4834141;29;20054;-83
2022/12/01 07:07:38;;;;;;;65.97;36.00;;;4.90;99.90;;;;;;4808202;29;20127;-83
2022/12/01 07:10:07;;;;;;;61.80;34.15;;;4.90;99.90;;;;;;4818439;29;20044;-84
2022/12/01 07:12:32;;;;;;;66.32;35.97;;;4.80;99.90;;;;;;4791335;29;20053;-83
2022/12/01 07:14:58;;;;;;;74.38;38.38;;;4.70;99.90;;;;;;4828127;29;20042;-83
2022/12/01 07:17:24;;;;;;;80.90;41.05;;;4.70;99.90;;;;;;4827980;29;20042;-82
2022/12/01 07:19:49;;;;;;;74.93;40.25;;;4.70;99.90;;;;;;4827101;29;20540;-82
2022/12/01 07:22:15;;;;;;;85.03;40.72;;;4.80;99.90;;;;;;4824570;29;20050;-82
2022/12/01 07:24:40;;;;;;;86.70;43.05;;;4.80;99.90;;;;;;4818936;29;20054;-83
2022/12/01 07:27:06;;;;;;;95.03;45.85;;;4.80;99.90;;;;;;4821615;29;20050;-83
2022/12/01 07:29:32;;;;;;;86.90;43.38;;;4.80;99.90;;;;;;4804822;29;20045;-84
2022/12/01 07:31:57;;;;;;;95.43;44.75;;;4.90;99.90;;;;;;4822038;29;20045;-85
2022/12/01 07:34:23;;;;;;;88.88;44.42;;;4.90;99.90;;;;;;4784303;29;20084;-85
2022/12/01 07:36:49;;;;;;;89.90;42.90;;;4.90;99.90;;;;;;4808699;29;20761;-83
2022/12/01 07:39:14;;;;;;;81.25;40.78;;;5.00;99.90;;;;;;4817223;29;20046;-85
2022/12/01 07:41:40;;;;;;;82.95;42.08;;;5.00;99.90;;;;;;4818959;29;20042;-84
2022/12/01 07:44:06;;;;;;;88.38;43.63;;;5.10;99.90;;;;;;4800924;29;20068;-85
2022/12/01 07:46:31;;;;;;;95.97;45.85;;;5.10;99.90;;;;;;4818109;29;20045;-85
2022/12/01 07:48:58;;;;;;;86.43;43.92;;;5.10;99.90;;;;;;4817628;29;20069;-85
2022/12/01 07:51:24;;;;;;;97.57;45.92;;;5.10;99.90;;;;;;4818092;29;20129;-85
2022/12/01 07:53:51;;;;;;;90.82;45.92;;;5.10;99.90;;;;;;4817841;29;20505;-85
2022/12/01 07:56:18;;;;;;;88.13;46.58;;;5.10;99.90;;;;;;4816365;29;20137;-85
2022/12/01 07:58:44;;;;;;;90.80;46.95;;;5.10;99.90;;;;;;4815067;29;20398;-85
2022/12/01 08:01:18;;;;;;;90.45;44.67;;;5.20;99.90;;;;;;4817103;29;20076;-85
2022/12/01 08:03:44;;;;;;;93.15;45.95;;;5.20;99.90;;;;;;4817031;29;20056;-85
2022/12/01 08:06:10;;;;;;;80.60;43.25;;;5.30;99.90;;;;;;4816346;29;20118;-85
2022/12/01 08:08:37;;;;;;;92.18;45.95;;;5.30;99.90;;;;;;4801437;29;20095;-85
2022/12/01 08:11:06;;;;;;;96.57;47.50;;;5.40;99.90;;;;;;4818256;29;20041;-85
2022/12/01 08:13:32;;;;;;;96.45;47.25;;;5.50;99.90;;;;;;4816337;29;20564;-86
2022/12/01 08:15:57;;;;;;;98.25;47.78;;;5.40;99.90;;;;;;4797834;29;20132;-85
2022/12/01 08:18:23;;;;;;;92.88;47.25;;;5.50;99.90;;;;;;4815184;29;20053;-85
2022/12/01 08:20:49;;;;;;;91.35;46.80;;;5.40;99.90;;;;;;4813158;29;20081;-85
2022/12/01 08:23:16;;;;;;;88.03;44.67;;;5.50;99.90;;;;;;4816881;29;20053;-85
2022/12/01 08:25:45;;;;;;;89.45;46.20;;;5.30;99.90;;;;;;4787575;29;20053;-85
2022/12/01 08:28:11;;;;;;;88.25;43.60;;;5.40;99.90;;;;;;4815903;29;20045;-84
2022/12/01 08:30:36;;;;;;;86.78;43.50;;;5.40;99.90;;;;;;4816025;29;20049;-85
2022/12/01 08:33:02;;;;;;;75.88;40.28;;;5.30;99.90;;;;;;4815874;29;20080;-85
2022/12/01 08:35:28;;;;;;;76.82;38.67;;;5.20;99.90;;;;;;4813551;29;20049;-85
2022/12/01 08:37:53;;;;;;;81.65;39.65;;;5.20;99.90;;;;;;4811341;29;20131;-85
2022/12/01 08:40:21;;;;;;;70.43;36.70;;;5.90;99.90;;;;;;4816300;29;20501;-84
2022/12/01 08:42:46;;;;;;;62.72;33.97;;;4.90;99.90;;;;;;4815255;29;20101;-85
2022/12/01 08:45:12;;;;;;;78.45;40.03;;;4.80;99.90;;;;;;4813582;29;20049;-85
2022/12/01 08:47:38;;;;;;;78.18;42.15;;;4.80;99.90;;;;;;4832783;29;20162;-85
2022/12/01 08:50:05;;;;;;;79.97;38.85;;;4.80;99.90;;;;;;4818780;29;20042;-84
2022/12/01 08:52:31;;;;;;;66.03;34.05;;;4.80;99.90;;;;;;4817543;29;20042;-84
2022/12/01 08:54:58;;;;;;;66.82;37.78;;;4.70;99.90;;;;;;4796061;29;20057;-85
2022/12/01 08:57:23;;;;;;;80.20;40.80;;;4.70;99.90;;;;;;4798156;29;20053;-85
2022/12/01 08:59:49;;;;;;;69.72;38.05;;;4.70;99.90;;;;;;4799042;29;20049;-84
2022/12/01 09:02:17;;;;;;;74.15;38.88;;;4.70;99.90;;;;;;4817400;29;20046;-85
2022/12/01 09:04:43;;;;;;;79.45;40.28;;;4.70;99.90;;;;;;4814739;29;20073;-85
2022/12/01 09:07:10;;;;;;;77.95;41.03;;;4.70;99.90;;;;;;4816341;29;20045;-85
2022/12/01 09:09:37;;;;;;;71.88;39.80;;;4.80;99.90;;;;;;4816930;29;20038;-85
2022/12/01 09:12:03;;;;;;;77.22;39.97;;;4.80;99.90;;;;;;4806903;29;20053;-85
2022/12/01 09:14:28;;;;;;;69.20;40.28;;;4.80;99.90;;;;;;4784401;29;20046;-85
2022/12/01 09:16:54;;;;;;;77.35;42.05;;;5.20;99.90;;;;;;4809757;29;20222;-85
2022/12/01 09:19:20;;;;;;;81.65;41.75;;;4.90;99.90;;;;;;4800384;29;20126;-85
2022/12/01 09:21:46;;;;;;;85.32;42.58;;;5.00;99.90;;;;;;4817732;29;20041;-85
2022/12/01 09:24:14;;;;;;;86.80;45.65;;;5.10;99.90;;;;;;4818641;29;20045;-85
2022/12/01 09:26:41;;;;;;;78.18;42.38;;;5.80;99.90;;;;;;4819023;29;20034;-84
2022/12/01 09:29:09;;;;;;;79.80;42.42;;;5.10;99.90;;;;;;4801493;29;20046;-84
2022/12/01 09:31:35;;;;;;;77.13;42.60;;;5.10;99.90;;;;;;4834722;29;20104;-84
2022/12/01 09:34:04;;;;;;;76.43;40.60;;;5.50;99.90;;;;;;4820173;29;20133;-86
2022/12/01 09:36:31;;;;;;;75.35;42.65;;;5.20;99.90;;;;;;4822922;29;20042;-84
2022/12/01 09:38:58;;;;;;;70.90;39.15;;;5.10;99.90;;;;;;4804491;29;20042;-85
2022/12/01 09:42:04;;;;;;;79.28;39.22;;;5.20;99.90;;;;;;4819747;29;20074;-85
2022/12/01 09:45:06;;;;;;;70.53;38.55;;;5.20;99.90;;;;;;4767859;30;20485;-85
2022/12/01 09:48:27;;;;;;;69.35;37.72;;;5.10;99.90;;;;;;4724202;30;20810;-85
2022/12/01 11:05:00;;;;;;;52.90;34.90;;;6.60;99.90;;;;;;4802548;29;20051;-86
2022/12/01 11:23:00;;;;;;;49.97;33.28;;;7.00;99.90;;;;;;4804229;29;20085;-88
2022/12/01 11:33:56;;;;;;;45.28;31.60;;;7.10;99.90;;;;;;4747861;30;20059;-88
2022/12/01 11:37:49;;;;;;;44.25;30.98;;;7.10;99.90;;;;;;4655778;30;20611;-88
2022/12/01 11:40:57;;;;;;;50.85;31.02;;;7.10;99.90;;;;;;4728448;29;20047;-88
2022/12/01 11:43:35;;;;;;;46.05;30.35;;;8.00;99.90;;;;;;4786144;29;20059;-88
2022/12/01 11:46:04;;;;;;;46.30;30.77;;;6.90;99.90;;;;;;4774647;29;20047;-88
2022/12/01 11:48:33;;;;;;;42.40;29.70;;;6.90;99.90;;;;;;4804198;29;20039;-88
2022/12/01 11:51:23;;;;;;;44.50;29.45;;;6.90;99.90;;;;;;4790146;29;20043;-88
2022/12/01 11:54:02;;;;;;;46.78;29.92;;;6.80;99.90;;;;;;4804567;29;20047;-88
2022/12/01 11:56:30;;;;;;;52.33;33.05;;;6.80;99.90;;;;;;4792467;29;20043;-88
2022/12/01 11:59:05;;;;;;;44.10;29.75;;;6.80;99.90;;;;;;4776242;29;20055;-88
2022/12/01 12:01:40;;;;;;;48.35;31.58;;;6.80;99.90;;;;;;4788714;29;20047;-89
2022/12/01 12:04:20;;;;;;;48.05;32.00;;;6.90;99.90;;;;;;4806306;29;20043;-89
2022/12/01 12:07:13;;;;;;;46.03;30.60;;;7.30;99.90;;;;;;4788540;29;20069;-88
2022/12/01 12:09:52;;;;;;;48.03;31.92;;;6.90;99.90;;;;;;4787498;29;20135;-88
2022/12/01 12:12:27;;;;;;;50.50;32.40;;;6.90;99.90;;;;;;4788324;29;20057;-88
2022/12/01 12:15:08;;;;;;;48.85;31.63;;;6.90;99.90;;;;;;4786981;29;20054;-88
2022/12/01 12:17:40;;;;;;;51.08;31.23;;;6.80;99.90;;;;;;4807458;29;20038;-88
2022/12/01 12:21:02;;;;;;;52.90;32.55;;;6.80;99.90;;;;;;4789373;29;20114;-88
2022/12/01 12:23:46;;;;;;;52.50;32.00;;;6.80;99.90;;;;;;4742248;30;20063;-88
2022/12/01 12:26:20;;;;;;;53.33;33.40;;;6.80;99.90;;;;;;4806264;29;20069;-88
2022/12/01 12:29:24;;;;;;;53.35;34.47;;;6.70;99.90;;;;;;4787326;29;20517;-88
2022/12/01 12:32:18;;;;;;;51.33;32.90;;;6.70;99.90;;;;;;4806659;29;20043;-88
2022/12/01 12:34:50;;;;;;;51.33;32.72;;;6.70;99.90;;;;;;4788144;29;20047;-88
2022/12/01 12:37:37;;;;;;;50.00;32.70;;;6.70;99.90;;;;;;4791310;29;20058;-87
2022/12/01 12:40:28;;;;;;;58.80;32.85;;;6.70;99.90;;;;;;4805006;29;20092;-89
2022/12/01 12:43:20;;;;;;;47.15;32.25;;;7.10;99.90;;;;;;4803645;29;20418;-87
2022/12/01 12:46:07;;;;;;;47.05;31.70;;;6.70;99.90;;;;;;4791999;29;20594;-89
2022/12/01 12:48:50;;;;;;;49.35;32.92;;;6.70;99.90;;;;;;4800391;29;20042;-88
2022/12/01 12:51:23;;;;;;;49.83;33.15;;;7.70;99.90;;;;;;4786322;29;20077;-88
2022/12/01 12:53:56;;;;;;;51.03;31.23;;;6.80;99.90;;;;;;4790536;29;20035;-88
2022/12/01 12:56:24;;;;;;;46.22;31.48;;;6.80;99.90;;;;;;4789805;29;20057;-88
2022/12/01 12:59:03;;;;;;;44.53;31.92;;;6.70;99.90;;;;;;4788795;29;20483;-88
2022/12/01 13:01:43;;;;;;;51.55;33.13;;;6.80;99.90;;;;;;4804783;29;20452;-87
2022/12/01 13:04:18;;;;;;;52.20;33.47;;;6.80;99.90;;;;;;4802278;29;20101;-87
2022/12/01 13:07:05;;;;;;;49.20;32.40;;;6.80;99.90;;;;;;4788504;29;20038;-88
2022/12/01 13:09:47;;;;;;;52.78;32.03;;;6.80;99.90;;;;;;4790910;29;20046;-88
2022/12/01 13:12:31;;;;;;;46.35;30.88;;;6.80;99.90;;;;;;4810352;29;20050;-87
2022/12/01 13:15:12;;;;;;;45.28;28.60;;;6.70;99.90;;;;;;4807437;29;20039;-89
2022/12/01 13:17:42;;;;;;;46.55;30.10;;;6.70;99.90;;;;;;4787780;29;20038;-87
2022/12/01 13:20:17;;;;;;;45.60;30.60;;;6.70;99.90;;;;;;4802440;29;20043;-88
2022/12/01 13:22:49;;;;;;;42.92;28.77;;;6.80;99.90;;;;;;4800452;29;20047;-88
2022/12/01 13:25:23;;;;;;;39.05;27.88;;;7.10;99.90;;;;;;4789323;29;20046;-88
2022/12/01 13:27:50;;;;;;;39.47;28.58;;;6.80;99.90;;;;;;4778689;29;20043;-88
2022/12/01 13:30:21;;;;;;;42.25;28.90;;;6.80;99.90;;;;;;4791169;29;20194;-89
2022/12/01 13:32:47;;;;;;;40.58;27.05;;;6.90;99.90;;;;;;4789032;29;20491;-88
2022/12/01 13:35:19;;;;;;;44.17;30.08;;;6.80;99.90;;;;;;4787387;29;20414;-88
2022/12/01 13:37:45;;;;;;;42.25;29.35;;;6.90;99.90;;;;;;4786037;29;20146;-88
2022/12/01 13:40:24;;;;;;;41.83;29.58;;;6.80;99.90;;;;;;4788235;29;20497;-87
2022/12/01 13:42:53;;;;;;;40.65;28.42;;;6.90;99.90;;;;;;4791423;29;20047;-89
2022/12/01 13:45:19;;;;;;;41.95;28.48;;;6.90;99.90;;;;;;4791152;29;20049;-87
2022/12/01 13:47:55;;;;;;;41.05;28.92;;;6.80;99.90;;;;;;4785749;29;21183;-87
2022/12/01 13:50:42;;;;;;;44.83;28.70;;;6.80;99.90;;;;;;4801661;29;20055;-85
2022/12/01 13:53:26;;;;;;;41.80;29.42;;;6.70;99.90;;;;;;4788357;29;20055;-85
2022/12/01 13:56:43;;;;;;;42.88;30.50;;;6.70;99.90;;;;;;4800061;29;20043;-84
2022/12/01 13:59:41;;;;;;;42.20;28.55;;;6.70;99.90;;;;;;4787630;29;20137;-86
2022/12/01 14:02:19;;;;;;;43.42;29.63;;;6.70;99.90;;;;;;4793120;29;20077;-86
2022/12/01 14:04:44;;;;;;;42.58;29.33;;;6.60;99.90;;;;;;4792362;29;20038;-87
2022/12/01 14:07:34;;;;;;;40.35;28.70;;;6.70;99.90;;;;;;4793437;29;20529;-87
2022/12/01 14:10:32;;;;;;;40.33;28.30;;;6.50;99.90;;;;;;4776899;29;20064;-87
2022/12/01 14:13:04;;;;;;;41.28;28.02;;;6.50;99.90;;;;;;4790640;29;20129;-87
2022/12/01 14:15:41;;;;;;;44.78;30.08;;;6.50;99.90;;;;;;4794340;29;20035;-84
2022/12/01 14:18:32;;;;;;;40.20;28.85;;;6.50;99.90;;;;;;4787186;29;20043;-83
2022/12/01 14:21:04;;;;;;;47.17;29.92;;;6.50;99.90;;;;;;4802831;29;20042;-84
2022/12/01 14:23:36;;;;;;;42.63;29.63;;;6.50;99.90;;;;;;4788532;29;20046;-84
2022/12/01 14:26:18;;;;;;;51.40;30.63;;;6.50;99.90;;;;;;4787246;29;20129;-84
2022/12/01 14:29:30;;;;;;;42.25;30.65;;;6.40;99.90;;;;;;4800327;29;20046;-84
2022/12/01 14:31:59;;;;;;;44.67;30.50;;;6.50;99.90;;;;;;4804610;29;20494;-83
2022/12/01 14:34:28;;;;;;;44.75;30.85;;;6.40;99.90;;;;;;4788007;29;20050;-84
2022/12/01 14:37:09;;;;;;;41.92;30.45;;;6.40;99.90;;;;;;4789769;29;20046;-84
2022/12/01 14:39:57;;;;;;;48.15;30.02;;;6.30;99.90;;;;;;4775192;29;20506;-84
2022/12/01 14:45:45;;;;;;;43.75;29.73;;;6.30;99.90;;;;;;4800392;29;20038;-84
2022/12/01 14:48:44;;;;;;;45.38;30.60;;;6.30;99.90;;;;;;4787264;29;20038;-84
2022/12/01 14:51:26;;;;;;;44.42;30.38;;;6.20;99.90;;;;;;4790642;29;20046;-85
2022/12/01 14:53:53;;;;;;;45.88;29.73;;;6.20;99.90;;;;;;4791226;29;20035;-86
2022/12/01 14:56:22;;;;;;;40.65;29.02;;;6.20;99.90;;;;;;4804226;29;20043;-85
2022/12/01 14:59:21;;;;;;;43.13;29.85;;;6.20;99.90;;;;;;4800361;29;20047;-85
2022/12/01 15:01:50;;;;;;;49.50;31.25;;;6.20;99.90;;;;;;4802552;29;20503;-85
2022/12/01 15:04:15;;;;;;;45.78;29.27;;;6.20;99.90;;;;;;4803327;29;20077;-85
2022/12/01 15:06:41;;;;;;;43.00;28.77;;;6.10;99.90;;;;;;4804234;29;20070;-85
2022/12/01 15:09:15;;;;;;;43.08;30.65;;;6.10;99.90;;;;;;4792551;29;20125;-85
2022/12/01 15:11:54;;;;;;;47.35;30.90;;;6.10;99.90;;;;;;4787841;29;20042;-84
2022/12/01 15:14:38;;;;;;;45.65;29.48;;;6.00;99.90;;;;;;4785013;29;20535;-85
2022/12/01 15:17:27;;;;;;;51.40;30.98;;;6.10;99.90;;;;;;4766485;29;20062;-85
2022/12/01 15:19:53;;;;;;;47.10;31.00;;;6.00;99.90;;;;;;4787557;29;20091;-85
2022/12/01 15:22:39;;;;;;;42.28;30.40;;;6.00;99.90;;;;;;4789192;29;20097;-86
2022/12/01 15:25:22;;;;;;;47.55;31.50;;;6.00;99.90;;;;;;4790995;29;20039;-85
2022/12/01 15:28:02;;;;;;;42.58;30.50;;;6.00;99.90;;;;;;4787181;29;20087;-86
2022/12/01 15:30:42;;;;;;;50.72;32.13;;;6.00;99.90;;;;;;4803965;29;20066;-85
2022/12/01 15:33:37;;;;;;;49.28;31.95;;;6.00;99.90;;;;;;4760726;29;20145;-84
2022/12/01 15:36:05;;;;;;;50.97;32.35;;;5.90;99.90;;;;;;4786606;29;20113;-84
2022/12/01 15:38:34;;;;;;;52.45;34.13;;;5.90;99.90;;;;;;4787682;29;20407;-85
2022/12/01 15:41:02;;;;;;;50.97;33.08;;;5.90;99.90;;;;;;4787840;29;20047;-84
2022/12/01 15:43:36;;;;;;;47.35;32.45;;;5.90;99.90;;;;;;4803046;29;20039;-84
2022/12/01 15:46:10;;;;;;;49.05;33.13;;;5.90;99.90;;;;;;4789188;29;20050;-87
2022/12/01 15:49:05;;;;;;;52.75;34.25;;;5.90;99.90;;;;;;4791701;29;20035;-87
2022/12/01 15:51:31;;;;;;;49.45;32.35;;;5.90;99.90;;;;;;4801956;29;20414;-86
2022/12/01 15:54:14;;;;;;;51.80;33.83;;;5.80;99.90;;;;;;4802733;29;20046;-86
2022/12/01 15:56:40;;;;;;;52.80;35.05;;;5.90;99.90;;;;;;4785775;29;20745;-86
2022/12/01 15:59:23;;;;;;;49.03;34.15;;;5.80;99.90;;;;;;4803296;29;20078;-86
2022/12/01 16:01:48;;;;;;;54.58;35.08;;;5.90;99.90;;;;;;4807187;29;20041;-86
2022/12/01 16:04:34;;;;;;;49.97;34.03;;;5.80;99.90;;;;;;4772316;29;20046;-87
2022/12/01 16:07:08;;;;;;;56.78;36.78;;;6.00;99.90;;;;;;4788873;29;20051;-87